New Jersey Responder — WBO8578 — position and weather

sailwx.info

Track history (hours):
 
Tides and Currents Weather Stations Pressure Air Temp Water Temp Dewpoint Dewpoint Depression Visibility Wind Speed Wind Dir Waves Ship Positions

New Jersey Responder

Owner: MARINE SPILL RESPONSE CORP, HERNDON, VA. More information available from US FCC via Universal Licensing System and Coast Guard Vessel Documentation Center.

Last reported at 2018-Feb-22 18:29 UTC. Time now 2018-Feb-25 15:58 UTC.
Position N 40°30' W 074°14'.

; draft 4 m.

Type: Pollution control. MMSI: 366594000.

Date/timePositionNaut miles runAvg speedWind from/ knotsBaromVisibWave heightAir tempDewpointWater temp
2018-Feb-22 18:29N 40°30' W 074°14'5 9.4
2018-Feb-22 17:54N 40°30' W 074°06'2 0.9
2018-Feb-22 15:39N 40°30' W 074°09'0 0.1
2018-Feb-22 15:14N 40°30' W 074°09'0 0.8
2018-Feb-22 14:53N 40°30' W 074°08'0 0.5
2018-Feb-22 14:24N 40°30' W 074°08'2 0.1
2018-Feb-21 17:55N 40°30' W 074°10'610.7
2018-Feb-21 17:23N 40°29' W 074°03'4 9.7
2018-Feb-21 17:00N 40°28' W 073°58'5 9.0
2018-Feb-21 16:27N 40°26' W 073°52'7 7.6
2018-Feb-21 15:31N 40°31' W 073°59'110.4
2018-Feb-21 15:27N 40°31' W 074°00'510.0
2018-Feb-21 15:00N 40°35' W 074°02'5 8.8
2018-Feb-21 14:29N 40°39' W 074°07'4 8.8
2018-Feb-21 14:00N 40°38' W 074°12'5 8.2
2018-Feb-21 13:21N 40°33' W 074°15'  
2018-Feb-13 20:41N 40°32' W 074°15'3 6.2
2018-Feb-13 20:16N 40°30' W 074°14'310.4
2018-Feb-13 20:00N 40°30' W 074°10'3 6.2
2018-Feb-13 19:30N 40°30' W 074°06'1 0.7
2018-Feb-13 18:41N 40°30' W 074°05'0 0.6
2018-Feb-13 18:21N 40°30' W 074°06'0 0.6
2018-Feb-13 17:52N 40°30' W 074°06'0 0.7
2018-Feb-13 17:22N 40°30' W 074°06'0 0.9
2018-Feb-13 16:54N 40°30' W 074°07'0 0.3
2018-Feb-13 16:29N 40°30' W 074°07'1 2.1
2018-Feb-13 16:00N 40°30' W 074°06'1 1.9
2018-Feb-13 15:28N 40°29' W 074°04'0 0.4
2018-Feb-13 14:55N 40°30' W 074°04'  
Track history (hours):
 
Tides and Currents Weather Stations Pressure Air Temp Water Temp Dewpoint Dewpoint Depression Visibility Wind Speed Wind Dir Waves Ship Positions

New Jersey Responder

Owner: MARINE SPILL RESPONSE CORP, HERNDON, VA. More information available from US FCC via Universal Licensing System and Coast Guard Vessel Documentation Center.

Last reported at 2018-Feb-22 18:29 UTC. Time now 2018-Feb-25 15:58 UTC.
Position N 40°30' W 074°14'.

; draft 4 m.

Type: Pollution control. MMSI: 366594000.

Date/timePositionNaut miles runAvg speedWind from/ knotsBaromVisibWave heightAir tempDewpointWater temp
2018-Feb-22 18:29N 40°30' W 074°14'5 9.4
2018-Feb-22 17:54N 40°30' W 074°06'2 0.9
2018-Feb-22 15:39N 40°30' W 074°09'0 0.1
2018-Feb-22 15:14N 40°30' W 074°09'0 0.8
2018-Feb-22 14:53N 40°30' W 074°08'0 0.5
2018-Feb-22 14:24N 40°30' W 074°08'2 0.1
2018-Feb-21 17:55N 40°30' W 074°10'610.7
2018-Feb-21 17:23N 40°29' W 074°03'4 9.7
2018-Feb-21 17:00N 40°28' W 073°58'5 9.0
2018-Feb-21 16:27N 40°26' W 073°52'7 7.6
2018-Feb-21 15:31N 40°31' W 073°59'110.4
2018-Feb-21 15:27N 40°31' W 074°00'510.0
2018-Feb-21 15:00N 40°35' W 074°02'5 8.8
2018-Feb-21 14:29N 40°39' W 074°07'4 8.8
2018-Feb-21 14:00N 40°38' W 074°12'5 8.2
2018-Feb-21 13:21N 40°33' W 074°15'  
2018-Feb-13 20:41N 40°32' W 074°15'3 6.2
2018-Feb-13 20:16N 40°30' W 074°14'310.4
2018-Feb-13 20:00N 40°30' W 074°10'3 6.2
2018-Feb-13 19:30N 40°30' W 074°06'1 0.7
2018-Feb-13 18:41N 40°30' W 074°05'0 0.6
2018-Feb-13 18:21N 40°30' W 074°06'0 0.6
2018-Feb-13 17:52N 40°30' W 074°06'0 0.7
2018-Feb-13 17:22N 40°30' W 074°06'0 0.9
2018-Feb-13 16:54N 40°30' W 074°07'0 0.3
2018-Feb-13 16:29N 40°30' W 074°07'1 2.1
2018-Feb-13 16:00N 40°30' W 074°06'1 1.9
2018-Feb-13 15:28N 40°29' W 074°04'0 0.4
2018-Feb-13 14:55N 40°30' W 074°04'  

Dump ship's entire track history